首页
METAR-TAF:

METAR-TAF

机场 :

Lechfeld, 德国

纬度: 48-11N, 经度: 010-52E, 海拔: 555米

当前天气观测

该预报发布于35分钟前的03:20 UTC
风速1节,风向东转东北
温度 -3°C
湿度 100%
气压 1003 hPa
能见度10公里或以上
少量云层高于20000英尺

METAR: ETSL 140320Z 07001KT 9999 FEW200 M03/M03 Q1003 BLU+

时间: 04:55 (03:55 UTC)

预报

该预报发布于8小时和31分钟前的19:24 UTC
预报有效从13日的 19点(UTC)到 14日的 03点(UTC)
风速6节,风向南转西南
能见度10公里或以上
散云层高于16000英尺
短暂存在
从 13日的 20点(UTC)到 14日的 03点(UTC)
风速6节,风向南转南东
能見度: 1930
多云层高于300英尺
轻雾

TAF: ETSL 131924Z 1319/1403 20006KT 9999 NSW SCT160 TEMPO 1320/1403 15006KT 3000 BR BKN003 CANCEL 1930 BY ETGL

超过4000个机场的气象观测和天气预报(METAR&TAF报告)。

可查询的气象台以黄色和红色小点在地图上表示。

将鼠标移到小点上方,可查看气象台名称。

然后点击查看天气观测和预报。

如需切换地图:点击带黑十字的绿色按钮放大地图;点击带横线的绿色按钮缩小地图;或者点击绿色箭头查看邻近地区的地图。


METAR-TAF: